Time;durP1;ratioP1;P1;durP2;ratioP2;P2;SDS_P1;SDS_P2;PMS_P1;PMS_P2;Temp;Humidity;BMP_temperature;BMP_pressure;BME280_temperature;BME280_humidity;BME280_pressure;Samples;Min_cycle;Max_cycle;Signal;HPM_P1;HPM_P2
2023/09/20 00:02:17;;;;;;;10.50;4.78;;;;;;;;;;4377215;32;69745;-64
2023/09/20 00:05:04;;;;;;;9.52;4.87;;;;;;;;;;4410662;32;71926;-65
2023/09/20 00:07:54;;;;;;;8.15;4.22;;;;;;;;;;4399154;32;66227;-64
2023/09/20 00:10:41;;;;;;;11.85;5.50;;;;;;;;;;4411636;32;66398;-65
2023/09/20 00:13:27;;;;;;;7.80;4.15;;;;;;;;;;4388241;32;60364;-64
2023/09/20 00:16:14;;;;;;;12.70;4.62;;;;;;;;;;4387141;32;71145;-64
2023/09/20 00:19:01;;;;;;;14.02;5.85;;;;;;;;;;4398729;32;66474;-65
2023/09/20 00:21:47;;;;;;;11.23;5.47;;;;;;;;;;4387150;32;68745;-65
2023/09/20 00:24:34;;;;;;;12.23;6.85;;;;;;;;;;4411014;32;60170;-65
2023/09/20 00:27:21;;;;;;;12.15;6.20;;;;;;;;;;4398563;32;70537;-65
2023/09/20 00:30:14;;;;;;;16.10;9.18;;;;;;;;;;4409039;32;69459;-64
2023/09/20 00:33:01;;;;;;;18.87;9.38;;;;;;;;;;4398068;32;68726;-63
2023/09/20 00:35:48;;;;;;;20.95;10.63;;;;;;;;;;4410395;32;71552;-65
2023/09/20 00:38:35;;;;;;;22.83;11.35;;;;;;;;;;4409415;32;65912;-64
2023/09/20 00:41:21;;;;;;;18.02;11.40;;;;;;;;;;4409114;32;68068;-64
2023/09/20 00:44:08;;;;;;;18.85;10.27;;;;;;;;;;4398537;32;66826;-65
2023/09/20 00:46:55;;;;;;;17.67;10.13;;;;;;;;;;4394994;32;72001;-64
2023/09/20 00:50:00;;;;;;;16.98;9.77;;;;;;;;;;3868720;36;43942;-64
2023/09/20 00:53:07;;;;;;;17.77;8.95;;;;;;;;;;3868557;36;43433;-65
2023/09/20 00:55:55;;;;;;;19.85;9.75;;;;;;;;;;4390707;32;60491;-64
2023/09/20 00:58:43;;;;;;;21.30;9.65;;;;;;;;;;4414323;32;70719;-64
2023/09/20 01:01:28;;;;;;;16.85;9.32;;;;;;;;;;3847289;37;43413;-64
2023/09/20 01:04:16;;;;;;;16.00;8.63;;;;;;;;;;4388588;32;60367;-64
2023/09/20 01:07:20;;;;;;;17.27;9.82;;;;;;;;;;3847233;37;43606;-64
2023/09/20 01:10:08;;;;;;;22.95;9.95;;;;;;;;;;4399453;32;60337;-64
2023/09/20 01:12:59;;;;;;;23.67;10.23;;;;;;;;;;4409498;32;70054;-65
2023/09/20 01:15:46;;;;;;;16.30;9.23;;;;;;;;;;4388177;32;69522;-64
2023/09/20 01:18:33;;;;;;;17.15;9.25;;;;;;;;;;4398919;32;67935;-64
2023/09/20 01:21:19;;;;;;;19.15;8.95;;;;;;;;;;4398661;32;72151;-64
2023/09/20 01:24:07;;;;;;;15.75;8.32;;;;;;;;;;4388173;32;66331;-65
2023/09/20 01:26:57;;;;;;;19.40;9.25;;;;;;;;;;4387422;32;68118;-64
2023/09/20 01:29:46;;;;;;;16.77;8.77;;;;;;;;;;4410034;32;60426;-65
2023/09/20 01:32:36;;;;;;;16.62;8.80;;;;;;;;;;4377429;32;72474;-64
2023/09/20 01:35:24;;;;;;;19.62;9.20;;;;;;;;;;4402490;32;65986;-65
2023/09/20 01:38:11;;;;;;;19.10;8.80;;;;;;;;;;4390941;32;66864;-64
2023/09/20 01:40:58;;;;;;;16.87;8.55;;;;;;;;;;4398736;32;61473;-65
2023/09/20 01:43:46;;;;;;;17.20;8.95;;;;;;;;;;4398972;32;70655;-65
2023/09/20 01:46:33;;;;;;;13.27;8.57;;;;;;;;;;4394801;32;68370;-65
2023/09/20 01:49:21;;;;;;;13.70;8.80;;;;;;;;;;4393402;32;66591;-64
2023/09/20 01:52:08;;;;;;;16.50;8.18;;;;;;;;;;4382773;32;72044;-64
2023/09/20 01:54:57;;;;;;;12.90;7.00;;;;;;;;;;4394190;32;66445;-64
2023/09/20 01:57:47;;;;;;;10.25;5.80;;;;;;;;;;4383190;32;68166;-65
2023/09/20 02:00:40;;;;;;;8.75;5.40;;;;;;;;;;4393974;32;67385;-64
2023/09/20 02:03:27;;;;;;;10.68;5.55;;;;;;;;;;4394254;32;71636;-65
2023/09/20 02:06:13;;;;;;;10.65;5.72;;;;;;;;;;4382730;32;66407;-64
2023/09/20 02:09:00;;;;;;;13.10;5.90;;;;;;;;;;4371941;32;69472;-64
2023/09/20 02:11:47;;;;;;;10.98;5.95;;;;;;;;;;4395161;32;60606;-65
2023/09/20 02:14:34;;;;;;;9.60;5.85;;;;;;;;;;4382444;32;70824;-64
2023/09/20 02:17:20;;;;;;;10.07;6.00;;;;;;;;;;4388897;32;69467;-65
2023/09/20 02:20:09;;;;;;;7.95;4.82;;;;;;;;;;4383566;32;67369;-64
2023/09/20 02:22:56;;;;;;;14.68;6.25;;;;;;;;;;4373094;32;58908;-64
2023/09/20 02:25:43;;;;;;;12.57;5.40;;;;;;;;;;4383359;32;70481;-64
2023/09/20 02:28:29;;;;;;;10.65;5.55;;;;;;;;;;3847363;37;43860;-65
2023/09/20 02:31:18;;;;;;;10.55;5.45;;;;;;;;;;4398817;32;61220;-64
2023/09/20 02:34:08;;;;;;;12.05;6.18;;;;;;;;;;4388516;32;71907;-64
2023/09/20 02:36:56;;;;;;;8.00;4.68;;;;;;;;;;4400627;32;68135;-65
2023/09/20 02:42:29;;;;;;;7.32;3.92;;;;;;;;;;3847486;37;43989;-65
2023/09/20 02:48:06;;;;;;;8.48;4.32;;;;;;;;;;3850080;36;43881;-65
2023/09/20 02:50:57;;;;;;;12.95;4.57;;;;;;;;;;4375991;32;58955;-65
2023/09/20 02:53:43;;;;;;;8.85;4.37;;;;;;;;;;4385044;32;69116;-65
2023/09/20 02:56:30;;;;;;;6.57;4.20;;;;;;;;;;4399081;32;69873;-65
2023/09/20 02:59:17;;;;;;;9.13;3.97;;;;;;;;;;4388109;32;67923;-64
2023/09/20 03:02:05;;;;;;;9.57;4.62;;;;;;;;;;4385458;32;70645;-65
2023/09/20 03:04:54;;;;;;;8.57;4.00;;;;;;;;;;4375018;32;64432;-66
2023/09/20 03:10:27;;;;;;;8.73;4.03;;;;;;;;;;3847396;37;44004;-64
2023/09/20 03:13:11;;;;;;;7.30;3.72;;;;;;;;;;3847371;37;43866;-64
2023/09/20 03:16:01;;;;;;;6.68;4.05;;;;;;;;;;4399874;32;59897;-64
2023/09/20 03:18:51;;;;;;;6.93;3.45;;;;;;;;;;4388572;32;70368;-64
2023/09/20 03:21:40;;;;;;;9.65;3.97;;;;;;;;;;4391035;32;67784;-65
2023/09/20 03:24:27;;;;;;;5.80;3.25;;;;;;;;;;4400142;32;66487;-64
2023/09/20 03:29:57;;;;;;;7.25;3.53;;;;;;;;;;3847558;37;43039;-63
2023/09/20 03:32:45;;;;;;;7.78;3.87;;;;;;;;;;4409999;32;59216;-65
2023/09/20 03:35:34;;;;;;;6.40;3.75;;;;;;;;;;4409629;32;70280;-65
2023/09/20 03:38:21;;;;;;;7.05;3.58;;;;;;;;;;4388332;32;69500;-64
2023/09/20 03:41:08;;;;;;;7.75;3.53;;;;;;;;;;4399828;32;68031;-64
2023/09/20 03:43:56;;;;;;;10.80;4.53;;;;;;;;;;4388236;32;69418;-64
2023/09/20 03:46:42;;;;;;;9.10;3.92;;;;;;;;;;4377081;32;64463;-65
2023/09/20 03:49:30;;;;;;;7.87;3.35;;;;;;;;;;4398644;32;66596;-65
2023/09/20 03:52:17;;;;;;;6.68;3.45;;;;;;;;;;4399180;32;59845;-64
2023/09/20 03:55:08;;;;;;;6.93;3.50;;;;;;;;;;4387738;32;70309;-65
2023/09/20 03:57:54;;;;;;;6.75;2.90;;;;;;;;;;4409455;32;65956;-65
2023/09/20 04:00:42;;;;;;;4.15;2.47;;;;;;;;;;4387766;32;66365;-65
2023/09/20 04:03:29;;;;;;;4.85;3.00;;;;;;;;;;4387985;32;59190;-65
2023/09/20 04:06:16;;;;;;;4.35;2.40;;;;;;;;;;4397747;32;68047;-63
2023/09/20 04:09:09;;;;;;;5.20;2.78;;;;;;;;;;4387439;32;68360;-64
2023/09/20 04:11:57;;;;;;;3.90;2.40;;;;;;;;;;4409305;32;66852;-64
2023/09/20 04:14:43;;;;;;;5.10;2.60;;;;;;;;;;4398427;32;71751;-65
2023/09/20 04:17:32;;;;;;;4.10;2.58;;;;;;;;;;4397804;32;65260;-64
2023/09/20 04:20:20;;;;;;;7.70;3.05;;;;;;;;;;4409141;32;68466;-64
2023/09/20 04:23:07;;;;;;;6.68;3.30;;;;;;;;;;4398454;32;67908;-64
2023/09/20 04:25:55;;;;;;;;;;;;;;;;;;4376685;32;71000;-63
2023/09/20 04:28:41;;;;;;;3.53;2.45;;;;;;;;;;4398295;32;65957;-65
2023/09/20 04:31:30;;;;;;;5.72;3.00;;;;;;;;;;4397968;32;65412;-66
2023/09/20 04:34:16;;;;;;;5.30;2.78;;;;;;;;;;4387349;32;59417;-64
2023/09/20 04:37:05;;;;;;;4.95;2.75;;;;;;;;;;4409021;32;70763;-65
2023/09/20 04:39:52;;;;;;;5.97;2.80;;;;;;;;;;4393265;32;70431;-63
2023/09/20 04:42:39;;;;;;;7.65;3.70;;;;;;;;;;4388025;32;68118;-64
2023/09/20 04:45:28;;;;;;;5.37;3.20;;;;;;;;;;4377747;32;59195;-64
2023/09/20 04:48:14;;;;;;;7.25;3.05;;;;;;;;;;4388887;32;70701;-65
2023/09/20 04:51:02;;;;;;;5.70;2.97;;;;;;;;;;4377760;32;69350;-65
2023/09/20 04:53:49;;;;;;;5.37;3.20;;;;;;;;;;4388076;32;67589;-65
2023/09/20 04:56:36;;;;;;;4.37;2.90;;;;;;;;;;4365673;32;73560;-63
2023/09/20 04:59:23;;;;;;;5.30;2.85;;;;;;;;;;4376952;32;67620;-65
2023/09/20 05:02:10;;;;;;;4.12;2.67;;;;;;;;;;4398360;32;68136;-65
2023/09/20 05:04:58;;;;;;;5.60;3.10;;;;;;;;;;4377033;32;60338;-64
2023/09/20 05:07:44;;;;;;;5.68;2.78;;;;;;;;;;4394939;32;70287;-65
2023/09/20 05:10:32;;;;;;;5.05;2.90;;;;;;;;;;4388174;32;65967;-65
2023/09/20 05:13:18;;;;;;;4.78;2.85;;;;;;;;;;4387538;32;67496;-64
2023/09/20 05:16:06;;;;;;;5.37;2.62;;;;;;;;;;4366297;32;59398;-64
2023/09/20 05:18:52;;;;;;;5.30;2.90;;;;;;;;;;4375927;32;70136;-65
2023/09/20 07:16:40;;;;;;;1.75;1.65;;;;;;;;;;4376358;32;70034;-64
2023/09/20 07:19:30;;;;;;;3.22;2.08;;;;;;;;;;4368457;32;65848;-64
2023/09/20 07:22:17;;;;;;;3.70;2.50;;;;;;;;;;4378762;32;67646;-64
2023/09/20 07:25:19;;;;;;;2.15;1.52;;;;;;;;;;4359215;32;61017;-64
2023/09/20 07:28:06;;;;;;;3.37;1.90;;;;;;;;;;4357250;32;71265;-64
2023/09/20 07:30:55;;;;;;;5.25;2.22;;;;;;;;;;4379890;32;66376;-64
2023/09/20 07:33:41;;;;;;;2.17;1.70;;;;;;;;;;4357483;32;68136;-64
2023/09/20 07:36:29;;;;;;;3.95;1.98;;;;;;;;;;4378404;32;59836;-64
2023/09/20 07:39:21;;;;;;;1.90;1.48;;;;;;;;;;4367864;32;69722;-64
2023/09/20 07:42:29;;;;;;;2.28;1.75;;;;;;;;;;3847228;37;43933;-64
2023/09/20 09:02:16;;;;;;;4.32;1.80;;;;;;;;;;4383632;32;60202;-63
2023/09/20 09:05:04;;;;;;;3.03;1.52;;;;;;;;;;4383299;32;70906;-64
2023/09/20 09:07:50;;;;;;;2.35;1.70;;;;;;;;;;4372658;32;69626;-63
2023/09/20 09:10:37;;;;;;;;;;;;;;;;;;4373002;32;66771;-63
2023/09/20 09:13:24;;;;;;;3.08;1.77;;;;;;;;;;4372603;32;60737;-63
2023/09/20 09:16:15;;;;;;;2.47;1.27;;;;;;;;;;4384155;32;69960;-63
2023/09/20 09:19:02;;;;;;;6.47;2.00;;;;;;;;;;4372406;32;69342;-64
2023/09/20 09:21:48;;;;;;;;;;;;;;;;;;4371974;32;66815;-63
2023/09/20 09:24:46;;;;;;;3.85;1.60;;;;;;;;;;4383309;32;72866;-63
2023/09/20 09:27:33;;;;;;;1.58;1.48;;;;;;;;;;4363410;32;65010;-63
2023/09/20 09:30:21;;;;;;;1.98;1.77;;;;;;;;;;4387664;32;66958;-62
2023/09/20 09:33:13;;;;;;;3.80;2.15;;;;;;;;;;4385183;32;59425;-63
2023/09/20 09:36:00;;;;;;;4.68;2.50;;;;;;;;;;4362217;32;69441;-63
2023/09/20 09:38:47;;;;;;;;;;;;;;;;;;4383309;32;66186;-62
2023/09/20 09:41:46;;;;;;;1.80;1.48;;;;;;;;;;4371907;32;67553;-62
2023/09/20 09:44:48;;;;;;;2.25;1.85;;;;;;;;;;4361749;32;57714;-63
2023/09/20 09:47:35;;;;;;;3.20;1.87;;;;;;;;;;4371966;32;70639;-63
2023/09/20 09:50:21;;;;;;;;;;;;;;;;;;4382827;32;68505;-63
2023/09/20 09:53:09;;;;;;;2.87;1.92;;;;;;;;;;4360893;32;67472;-62
2023/09/20 09:55:56;;;;;;;2.95;1.75;;;;;;;;;;4361368;32;71753;-64
2023/09/20 09:58:43;;;;;;;1.60;1.50;;;;;;;;;;4361614;32;64863;-63
2023/09/20 10:01:30;;;;;;;3.00;1.73;;;;;;;;;;4382599;32;67042;-63
2023/09/20 10:04:19;;;;;;;2.80;1.87;;;;;;;;;;4360219;32;67648;-63
2023/09/20 10:07:16;;;;;;;4.18;1.80;;;;;;;;;;4360218;32;72325;-63
2023/09/20 10:10:12;;;;;;;;;;;;;;;;;;4363102;32;66249;-62
2023/09/20 10:13:00;;;;;;;2.65;1.85;;;;;;;;;;4372945;32;66946;-63
2023/09/20 10:15:49;;;;;;;3.92;1.80;;;;;;;;;;4382783;32;60534;-64
2023/09/20 10:18:54;;;;;;;2.87;1.65;;;;;;;;;;4371861;32;70640;-64
2023/09/20 10:21:40;;;;;;;1.87;1.65;;;;;;;;;;3847165;37;43820;-64
2023/09/20 10:24:29;;;;;;;2.92;1.55;;;;;;;;;;4399126;32;60170;-63
2023/09/20 10:27:19;;;;;;;2.67;1.75;;;;;;;;;;4398240;32;72093;-64
2023/09/20 10:30:14;;;;;;;2.50;1.80;;;;;;;;;;3845589;37;43020;-63
2023/09/20 10:33:04;;;;;;;2.22;1.67;;;;;;;;;;4399724;32;61674;-64
2023/09/20 10:35:53;;;;;;;2.80;1.62;;;;;;;;;;4388750;32;69607;-63
2023/09/20 10:50:47;;;;;;;3.90;1.87;;;;;;;;;;4410384;32;65604;-61
2023/09/20 10:53:47;;;;;;;3.80;2.15;;;;;;;;;;4409513;32;66105;-63
2023/09/20 10:56:51;;;;;;;3.35;1.60;;;;;;;;;;4410787;32;60252;-64
2023/09/20 10:59:40;;;;;;;2.10;1.70;;;;;;;;;;4408817;32;72853;-64
2023/09/20 11:02:27;;;;;;;2.17;1.73;;;;;;;;;;4409329;32;66422;-63
2023/09/20 11:05:14;;;;;;;;;;;;;;;;;;4388246;32;67837;-65
2023/09/20 11:08:08;;;;;;;2.15;1.85;;;;;;;;;;4397940;32;60814;-63
2023/09/20 11:11:00;;;;;;;2.28;1.65;;;;;;;;;;4388039;32;70494;-63
2023/09/20 11:13:48;;;;;;;1.95;1.65;;;;;;;;;;4398566;32;69162;-64
2023/09/20 11:16:37;;;;;;;1.90;1.70;;;;;;;;;;4409051;32;67717;-63
2023/09/20 11:19:23;;;;;;;2.70;1.90;;;;;;;;;;4410131;32;71260;-64
2023/09/20 11:22:10;;;;;;;2.72;1.77;;;;;;;;;;4387113;32;64898;-64
2023/09/20 11:24:56;;;;;;;2.15;1.80;;;;;;;;;;4376268;32;70200;-63
2023/09/20 11:27:44;;;;;;;2.53;1.77;;;;;;;;;;4408947;32;67282;-64
2023/09/20 11:30:31;;;;;;;3.05;1.83;;;;;;;;;;4409933;32;71660;-63
2023/09/20 11:33:30;;;;;;;2.35;1.90;;;;;;;;;;3845777;37;43522;-63
2023/09/20 11:36:22;;;;;;;2.10;1.73;;;;;;;;;;4399044;32;58703;-64
2023/09/20 11:39:09;;;;;;;2.25;1.58;;;;;;;;;;4399272;32;70389;-64
2023/09/20 11:42:04;;;;;;;3.70;2.00;;;;;;;;;;4398977;32;69414;-64
2023/09/20 11:44:56;;;;;;;3.05;1.50;;;;;;;;;;4399010;32;67432;-65
2023/09/20 11:47:43;;;;;;;1.67;1.58;;;;;;;;;;4398992;32;70765;-64
2023/09/20 11:50:30;;;;;;;2.40;1.60;;;;;;;;;;4398974;32;65100;-63
2023/09/20 11:53:18;;;;;;;2.12;1.52;;;;;;;;;;4409401;32;67196;-64
2023/09/20 11:56:05;;;;;;;2.97;1.65;;;;;;;;;;4398170;32;59623;-64
2023/09/20 11:58:53;;;;;;;2.55;1.70;;;;;;;;;;4409471;32;71714;-63
2023/09/20 12:01:43;;;;;;;3.25;1.70;;;;;;;;;;4376700;32;63501;-64
2023/09/20 12:04:30;;;;;;;2.05;1.62;;;;;;;;;;4398014;32;67013;-65
2023/09/20 12:07:17;;;;;;;1.90;1.60;;;;;;;;;;4410766;32;60086;-64
2023/09/20 12:10:06;;;;;;;2.15;1.62;;;;;;;;;;4398307;32;70203;-63
2023/09/20 12:12:53;;;;;;;1.83;1.62;;;;;;;;;;4397867;32;71773;-63
2023/09/20 12:15:43;;;;;;;2.28;1.60;;;;;;;;;;4387203;32;65604;-64
2023/09/20 12:18:29;;;;;;;3.42;1.87;;;;;;;;;;4398765;32;72704;-64
2023/09/20 12:21:17;;;;;;;2.03;1.83;;;;;;;;;;4387467;32;66647;-64
2023/09/20 12:24:06;;;;;;;2.15;1.30;;;;;;;;;;4387939;32;72229;-64
2023/09/20 12:27:05;;;;;;;3.22;1.90;;;;;;;;;;4399519;32;67521;-64
2023/09/20 12:29:51;;;;;;;1.70;1.52;;;;;;;;;;4387711;32;71489;-64
2023/09/20 12:32:39;;;;;;;2.00;1.73;;;;;;;;;;4397765;32;64992;-63
2023/09/20 12:35:26;;;;;;;2.08;1.80;;;;;;;;;;4408315;32;69177;-65
2023/09/20 12:38:13;;;;;;;3.00;2.00;;;;;;;;;;4397478;32;61558;-64
2023/09/20 12:41:00;;;;;;;2.67;1.42;;;;;;;;;;4408684;32;70527;-64
2023/09/20 12:43:47;;;;;;;;;;;;;;;;;;4404695;32;69347;-63
2023/09/20 12:46:33;;;;;;;4.37;2.00;;;;;;;;;;4387446;32;68502;-63
2023/09/20 12:49:20;;;;;;;2.35;1.58;;;;;;;;;;4388107;32;59097;-64
2023/09/20 12:52:07;;;;;;;;;;;;;;;;;;4388125;32;70448;-63
2023/09/20 12:54:54;;;;;;;1.80;1.62;;;;;;;;;;4399943;32;68559;-64
2023/09/20 12:57:41;;;;;;;2.58;1.80;;;;;;;;;;4398445;32;66556;-63
2023/09/20 13:00:28;;;;;;;1.83;1.42;;;;;;;;;;4398249;32;71369;-63
2023/09/20 13:03:15;;;;;;;2.40;1.90;;;;;;;;;;4387138;32;69202;-63
2023/09/20 13:06:01;;;;;;;4.35;2.20;;;;;;;;;;4398432;32;68004;-64
2023/09/20 13:08:48;;;;;;;2.45;1.98;;;;;;;;;;4377406;32;60117;-64
2023/09/20 13:11:35;;;;;;;2.95;1.70;;;;;;;;;;4387469;32;69721;-65
2023/09/20 13:14:23;;;;;;;;;;;;;;;;;;4398769;32;64536;-64
2023/09/20 13:17:09;;;;;;;2.35;1.83;;;;;;;;;;4388011;32;67709;-64
2023/09/20 13:19:56;;;;;;;;;;;;;;;;;;4398375;32;59778;-63
2023/09/20 13:22:45;;;;;;;2.20;1.77;;;;;;;;;;4386924;32;70206;-64
2023/09/20 13:25:32;;;;;;;4.75;2.33;;;;;;;;;;4376972;32;69077;-63
2023/09/20 13:28:19;;;;;;;2.45;1.90;;;;;;;;;;4386657;32;68351;-64
2023/09/20 13:31:07;;;;;;;3.40;1.90;;;;;;;;;;4386791;32;71913;-64
2023/09/20 13:33:53;;;;;;;2.92;1.75;;;;;;;;;;4387155;32;65560;-64
2023/09/20 13:36:40;;;;;;;3.15;2.20;;;;;;;;;;4398214;32;67057;-64
2023/09/20 13:39:27;;;;;;;;;;;;;;;;;;4399877;32;67718;-65
2023/09/20 13:42:15;;;;;;;2.85;1.73;;;;;;;;;;4387551;32;71907;-63
2023/09/20 13:45:06;;;;;;;3.67;1.92;;;;;;;;;;4397977;32;64634;-64
2023/09/20 13:47:53;;;;;;;4.43;2.03;;;;;;;;;;4365869;32;67212;-64
2023/09/20 13:50:41;;;;;;;2.92;2.08;;;;;;;;;;4398272;32;59298;-64
2023/09/20 13:53:27;;;;;;;;;;;;;;;;;;4399444;32;70744;-64
2023/09/20 13:56:14;;;;;;;3.53;1.80;;;;;;;;;;4385617;32;70213;-65
2023/09/20 13:59:01;;;;;;;3.53;2.08;;;;;;;;;;4398258;32;67742;-64
2023/09/20 14:01:49;;;;;;;2.17;1.77;;;;;;;;;;4386372;32;60426;-65
2023/09/20 14:04:36;;;;;;;2.12;1.70;;;;;;;;;;4398875;32;70517;-63
2023/09/20 14:07:22;;;;;;;3.17;2.10;;;;;;;;;;4386793;32;69502;-65
2023/09/20 14:10:09;;;;;;;;;;;;;;;;;;4388887;32;66751;-64
2023/09/20 14:12:56;;;;;;;1.90;1.65;;;;;;;;;;4399230;32;71014;-64
2023/09/20 14:15:45;;;;;;;2.55;2.00;;;;;;;;;;4397897;32;66005;-64
2023/09/20 14:18:31;;;;;;;3.97;2.08;;;;;;;;;;4398528;32;68059;-64
2023/09/20 14:21:18;;;;;;;2.72;1.90;;;;;;;;;;4398971;32;60178;-64
2023/09/20 14:24:05;;;;;;;2.47;1.80;;;;;;;;;;4386049;32;71016;-64
2023/09/20 14:26:52;;;;;;;2.78;1.98;;;;;;;;;;4385914;32;67126;-64
2023/09/20 14:29:40;;;;;;;3.20;2.12;;;;;;;;;;4375586;32;67024;-65
2023/09/20 14:33:30;;;;;;;3.85;2.10;;;;;;;;;;3847291;37;43949;-64
2023/09/20 14:36:19;;;;;;;4.32;1.90;;;;;;;;;;4377537;32;60032;-64
2023/09/20 14:39:05;;;;;;;3.35;2.00;;;;;;;;;;4377413;32;72589;-64
2023/09/20 14:41:52;;;;;;;4.53;2.53;;;;;;;;;;4387738;32;70571;-64
2023/09/20 14:44:39;;;;;;;2.72;1.75;;;;;;;;;;4409782;32;66806;-64
2023/09/20 14:47:27;;;;;;;3.03;2.20;;;;;;;;;;4376909;32;70952;-64
2023/09/20 14:50:14;;;;;;;3.05;1.70;;;;;;;;;;4398770;32;66190;-64
2023/09/20 14:53:01;;;;;;;3.15;1.85;;;;;;;;;;4387652;32;67608;-64
2023/09/20 14:55:49;;;;;;;1.87;1.58;;;;;;;;;;4409558;32;60252;-63
2023/09/20 14:58:36;;;;;;;3.85;1.98;;;;;;;;;;4408716;32;70623;-64
2023/09/20 15:01:23;;;;;;;3.12;2.12;;;;;;;;;;4409501;32;66585;-63
2023/09/20 15:04:09;;;;;;;;;;;;;;;;;;4409192;32;67132;-63
2023/09/20 15:06:56;;;;;;;6.00;2.22;;;;;;;;;;4387381;32;57358;-64
2023/09/20 15:09:46;;;;;;;;;;;;;;;;;;4398986;32;69970;-64
2023/09/20 15:12:33;;;;;;;3.00;2.10;;;;;;;;;;4376806;32;70268;-64
2023/09/20 15:15:22;;;;;;;3.28;2.22;;;;;;;;;;4398756;32;66671;-63
2023/09/20 15:18:08;;;;;;;4.30;2.15;;;;;;;;;;4409567;32;72906;-65
2023/09/20 15:20:55;;;;;;;2.87;2.00;;;;;;;;;;4410275;32;65025;-63
2023/09/20 15:23:43;;;;;;;5.85;2.50;;;;;;;;;;4410177;32;69066;-64
2023/09/20 15:26:35;;;;;;;3.25;2.03;;;;;;;;;;4399027;32;66852;-63
2023/09/20 15:29:22;;;;;;;2.35;1.90;;;;;;;;;;4410541;32;71692;-63
2023/09/20 15:32:08;;;;;;;4.62;1.98;;;;;;;;;;4397614;32;67492;-63
2023/09/20 15:34:59;;;;;;;1.92;1.73;;;;;;;;;;4398548;32;67587;-64
2023/09/20 15:37:47;;;;;;;4.15;2.03;;;;;;;;;;4398232;32;59432;-64
2023/09/20 15:40:35;;;;;;;4.70;2.37;;;;;;;;;;4398473;32;70456;-63
2023/09/20 15:43:23;;;;;;;2.65;2.08;;;;;;;;;;4394094;32;68919;-64
2023/09/20 15:46:13;;;;;;;2.47;1.87;;;;;;;;;;4388535;32;66534;-64
2023/09/20 15:49:00;;;;;;;2.97;2.20;;;;;;;;;;4378456;32;60473;-65
2023/09/20 15:51:45;;;;;;;3.55;2.35;;;;;;;;;;3868850;36;43589;-64
2023/09/20 15:54:32;;;;;;;2.78;2.03;;;;;;;;;;4393587;32;59807;-64
2023/09/20 15:57:19;;;;;;;3.50;2.15;;;;;;;;;;4408657;32;69939;-63
2023/09/20 16:00:12;;;;;;;5.25;2.25;;;;;;;;;;4404476;32;69543;-63
2023/09/20 16:02:59;;;;;;;3.40;2.33;;;;;;;;;;4415441;32;66857;-63
2023/09/20 16:06:10;;;;;;;2.78;2.12;;;;;;;;;;4390422;32;72270;-64
2023/09/20 16:09:00;;;;;;;1.95;1.70;;;;;;;;;;4426505;32;66503;-64
2023/09/20 16:12:19;;;;;;;3.15;2.17;;;;;;;;;;4399569;32;66338;-64
2023/09/20 16:15:09;;;;;;;4.18;2.20;;;;;;;;;;4426402;32;59221;-64
2023/09/20 16:17:55;;;;;;;3.28;2.37;;;;;;;;;;4390075;32;72991;-63
2023/09/20 16:20:42;;;;;;;3.00;2.15;;;;;;;;;;4403344;32;66161;-64
2023/09/20 16:23:30;;;;;;;;;;;;;;;;;;4414355;32;69061;-64
2023/09/20 16:26:19;;;;;;;3.15;1.87;;;;;;;;;;4393310;32;60163;-63
2023/09/20 16:29:05;;;;;;;4.28;2.20;;;;;;;;;;4426002;32;70739;-63
2023/09/20 16:31:54;;;;;;;3.37;2.05;;;;;;;;;;4400290;32;69569;-64
2023/09/20 16:37:42;;;;;;;4.50;1.98;;;;;;;;;;4413828;32;70791;-64
2023/09/20 16:40:30;;;;;;;3.87;1.77;;;;;;;;;;4392839;32;65108;-63
2023/09/20 16:43:17;;;;;;;3.33;2.17;;;;;;;;;;4400280;32;70750;-65
2023/09/20 16:46:03;;;;;;;5.03;2.10;;;;;;;;;;4400108;32;66970;-64
2023/09/20 16:48:51;;;;;;;4.55;2.40;;;;;;;;;;4398243;32;71618;-63
2023/09/20 16:51:38;;;;;;;3.35;1.95;;;;;;;;;;4384895;32;66921;-63
2023/09/20 16:54:25;;;;;;;;;;;;;;;;;;4388071;32;68000;-63
2023/09/20 16:57:12;;;;;;;4.37;1.80;;;;;;;;;;4385213;32;61117;-64
2023/09/20 16:59:58;;;;;;;2.30;2.00;;;;;;;;;;4363788;32;71712;-65
2023/09/20 17:02:45;;;;;;;3.58;2.20;;;;;;;;;;4376107;32;69732;-65
2023/09/20 17:05:35;;;;;;;3.37;1.92;;;;;;;;;;4374768;32;66291;-64
2023/09/20 17:08:22;;;;;;;5.18;2.35;;;;;;;;;;4375361;32;60849;-63
2023/09/20 17:11:09;;;;;;;3.25;2.15;;;;;;;;;;4363982;32;71937;-64
2023/09/20 17:13:56;;;;;;;4.18;2.30;;;;;;;;;;4374884;32;69755;-64
2023/09/20 17:16:43;;;;;;;4.00;2.12;;;;;;;;;;4377637;32;67899;-64
2023/09/20 17:19:30;;;;;;;5.32;2.05;;;;;;;;;;4353306;32;72590;-63
2023/09/20 17:22:17;;;;;;;2.22;2.00;;;;;;;;;;4374557;32;66033;-64
2023/09/20 17:25:05;;;;;;;3.75;2.10;;;;;;;;;;4377089;32;66881;-64
2023/09/20 17:27:52;;;;;;;3.60;2.00;;;;;;;;;;4374619;32;59900;-63
2023/09/20 17:30:41;;;;;;;;;;;;;;;;;;4374102;32;70803;-63
2023/09/20 17:33:31;;;;;;;2.60;2.05;;;;;;;;;;4388307;32;66050;-63
2023/09/20 17:36:19;;;;;;;2.87;1.80;;;;;;;;;;4374207;32;68670;-63
2023/09/20 17:39:06;;;;;;;;;;;;;;;;;;4374736;32;59511;-64
2023/09/20 17:41:55;;;;;;;3.22;2.20;;;;;;;;;;4378985;32;69582;-64
2023/09/20 17:44:42;;;;;;;4.37;2.20;;;;;;;;;;4376903;32;68255;-64
2023/09/20 17:47:28;;;;;;;;;;;;;;;;;;4399677;32;66913;-63
2023/09/20 17:50:15;;;;;;;2.87;1.92;;;;;;;;;;4386975;32;70761;-64
2023/09/20 17:53:19;;;;;;;;;;;;;;;;;;4374344;32;66899;-64
2023/09/20 17:56:22;;;;;;;;;;;;;;;;;;4374517;32;65918;-64
2023/09/20 17:59:08;;;;;;;2.83;2.28;;;;;;;;;;4374202;32;68477;-63
2023/09/20 18:01:57;;;;;;;;;;;;;;;;;;4374022;32;70441;-63
2023/09/20 18:04:45;;;;;;;3.65;2.10;;;;;;;;;;4366558;32;66534;-64
2023/09/20 18:07:32;;;;;;;3.35;2.20;;;;;;;;;;4374174;32;66503;-64
2023/09/20 18:10:22;;;;;;;3.42;2.20;;;;;;;;;;4374050;32;60960;-65
2023/09/20 18:13:08;;;;;;;3.75;2.35;;;;;;;;;;4375738;32;69643;-64
2023/09/20 18:15:53;;;;;;;3.12;1.90;;;;;;;;;;3847311;37;43112;-63
2023/09/20 18:18:41;;;;;;;3.47;2.00;;;;;;;;;;4377364;32;61296;-63
2023/09/20 18:21:29;;;;;;;3.25;2.10;;;;;;;;;;4388128;32;70213;-64
2023/09/20 18:24:16;;;;;;;3.35;2.20;;;;;;;;;;4399136;32;68484;-63
2023/09/20 18:27:03;;;;;;;2.03;1.67;;;;;;;;;;4398776;32;66838;-63
2023/09/20 18:29:52;;;;;;;3.40;2.22;;;;;;;;;;4409643;32;71761;-64
2023/09/20 18:32:38;;;;;;;4.32;2.00;;;;;;;;;;4399099;32;64604;-63
2023/09/20 18:35:25;;;;;;;3.62;2.30;;;;;;;;;;4388059;32;67200;-64
2023/09/20 18:38:13;;;;;;;3.40;2.30;;;;;;;;;;4388441;32;60326;-64
2023/09/20 18:41:00;;;;;;;2.87;1.87;;;;;;;;;;4398793;32;72026;-63
2023/09/20 18:43:50;;;;;;;2.95;1.90;;;;;;;;;;4387241;32;64923;-64
2023/09/20 18:46:37;;;;;;;2.97;2.20;;;;;;;;;;4398067;32;67140;-64
2023/09/20 18:49:23;;;;;;;5.97;2.47;;;;;;;;;;4409639;32;60353;-63
2023/09/20 18:52:12;;;;;;;;;;;;;;;;;;4409531;32;70772;-63
2023/09/20 18:54:59;;;;;;;3.47;2.12;;;;;;;;;;4398065;32;71658;-64
2023/09/20 18:57:53;;;;;;;3.33;2.33;;;;;;;;;;4409182;32;67402;-64
2023/09/20 19:00:40;;;;;;;5.25;2.45;;;;;;;;;;4408992;32;71396;-64
2023/09/20 19:03:28;;;;;;;3.00;2.28;;;;;;;;;;4387158;32;64927;-63
2023/09/20 19:06:22;;;;;;;3.20;2.35;;;;;;;;;;4387675;32;68582;-64
2023/09/20 19:09:07;;;;;;;5.18;2.50;;;;;;;;;;3847222;37;43169;-63
2023/09/20 19:11:54;;;;;;;3.60;2.50;;;;;;;;;;4399490;32;60632;-64
2023/09/20 19:14:43;;;;;;;3.37;2.40;;;;;;;;;;4409628;32;70656;-63
2023/09/20 19:17:33;;;;;;;3.53;2.25;;;;;;;;;;4387931;32;67677;-64
2023/09/20 19:20:23;;;;;;;4.50;2.60;;;;;;;;;;4398507;32;67981;-64
2023/09/20 19:23:13;;;;;;;3.50;2.50;;;;;;;;;;4410989;32;72272;-65
2023/09/20 19:25:59;;;;;;;;;;;;;;;;;;4412278;32;65820;-63
2023/09/20 19:28:46;;;;;;;3.80;2.45;;;;;;;;;;4389404;32;68413;-63
2023/09/20 19:31:33;;;;;;;3.35;2.37;;;;;;;;;;4409348;32;58738;-64
2023/09/20 19:34:20;;;;;;;3.20;2.00;;;;;;;;;;4409619;32;71482;-64
2023/09/20 19:37:08;;;;;;;2.78;2.17;;;;;;;;;;4409559;32;66198;-64
2023/09/20 19:39:57;;;;;;;3.97;2.67;;;;;;;;;;4387728;32;66067;-64
2023/09/20 19:42:45;;;;;;;3.47;2.72;;;;;;;;;;4409763;32;59176;-65
2023/09/20 19:45:33;;;;;;;3.50;2.45;;;;;;;;;;3847410;37;43905;-63
2023/09/20 19:48:21;;;;;;;4.00;2.83;;;;;;;;;;4398656;32;58967;-63
2023/09/20 19:51:11;;;;;;;5.43;2.62;;;;;;;;;;4409851;32;69377;-64
2023/09/20 19:54:00;;;;;;;5.30;2.78;;;;;;;;;;4402042;32;68669;-64
2023/09/20 19:56:48;;;;;;;4.65;2.87;;;;;;;;;;4398795;32;66983;-64
2023/09/20 19:59:34;;;;;;;4.97;2.80;;;;;;;;;;4377033;32;69503;-63
2023/09/20 20:02:21;;;;;;;4.22;2.50;;;;;;;;;;4398632;32;64710;-63
2023/09/20 20:05:09;;;;;;;4.53;2.60;;;;;;;;;;4398113;32;67038;-63
2023/09/20 20:07:58;;;;;;;5.05;2.53;;;;;;;;;;4399108;32;58989;-63
2023/09/20 20:10:46;;;;;;;3.35;2.40;;;;;;;;;;3706237;38;43824;-63
2023/09/20 20:16:18;;;;;;;3.78;2.80;;;;;;;;;;3847265;37;43854;-64
2023/09/20 20:19:09;;;;;;;5.03;2.58;;;;;;;;;;4409942;32;58770;-63
2023/09/20 20:21:55;;;;;;;6.18;2.45;;;;;;;;;;4377318;32;68329;-64
2023/09/20 20:24:42;;;;;;;3.92;2.60;;;;;;;;;;4410878;32;69175;-64
2023/09/20 20:27:31;;;;;;;3.78;2.50;;;;;;;;;;4409706;32;67720;-64
2023/09/20 20:30:18;;;;;;;3.72;2.58;;;;;;;;;;4410673;32;71521;-64
2023/09/20 20:33:05;;;;;;;4.20;2.40;;;;;;;;;;4398479;32;65475;-64
2023/09/20 20:35:52;;;;;;;5.07;2.65;;;;;;;;;;4398413;32;65123;-64
2023/09/20 20:38:39;;;;;;;7.53;2.78;;;;;;;;;;4398493;32;58806;-63